Time;durP1;ratioP1;P1;durP2;ratioP2;P2;SDS_P1;SDS_P2;PMS_P1;PMS_P2;Temp;Humidity;BMP_temperature;BMP_pressure;BME280_temperature;BME280_humidity;BME280_pressure;Samples;Min_cycle;Max_cycle;Signal;HPM_P1;HPM_P2
2022/09/01 00:00:22;;;;;;;;;2.00;1.00;;;;;;;;5053622;27;52188;-58
2022/09/01 00:02:48;;;;;;;;;14.50;13.75;;;;;;;;5058808;28;52315;-57
2022/09/01 00:05:13;;;;;;;;;15.75;14.00;;;;;;;;5059959;27;51502;-58
2022/09/01 00:07:39;;;;;;;;;14.75;14.50;;;;;;;;5054282;28;51429;-58
2022/09/01 00:10:06;;;;;;;;;14.75;14.25;;;;;;;;5039247;28;52103;-58
2022/09/01 00:12:31;;;;;;;;;15.75;15.75;;;;;;;;5038858;28;51338;-58
2022/09/01 00:14:57;;;;;;;;;14.25;14.25;;;;;;;;5041446;28;51143;-59
2022/09/01 00:17:23;;;;;;;;;15.75;15.75;;;;;;;;5039266;28;51395;-59
2022/09/01 00:19:49;;;;;;;;;16.25;16.00;;;;;;;;5043176;28;52110;-59
2022/09/01 00:22:14;;;;;;;;;16.25;15.50;;;;;;;;5037519;28;51156;-59
2022/09/01 00:24:39;;;;;;;;;16.00;16.00;;;;;;;;5043013;28;51140;-58
2022/09/01 00:27:05;;;;;;;;;16.75;16.00;;;;;;;;5040787;28;52140;-59
2022/09/01 00:29:30;;;;;;;;;15.75;15.75;;;;;;;;5040468;28;52102;-59
2022/09/01 00:31:55;;;;;;;;;16.50;16.50;;;;;;;;5043883;28;51125;-58
2022/09/01 00:34:21;;;;;;;;;16.50;15.00;;;;;;;;5039120;28;52185;-59
2022/09/01 00:36:47;;;;;;;;;15.00;15.00;;;;;;;;5041775;28;51033;-59
2022/09/01 00:39:12;;;;;;;;;13.75;12.75;;;;;;;;5037211;28;53104;-59
2022/09/01 00:41:38;;;;;;;;;16.50;16.25;;;;;;;;5039515;28;50988;-58
2022/09/01 00:44:06;;;;;;;;;18.50;17.00;;;;;;;;5037301;28;51008;-59
2022/09/01 00:46:33;;;;;;;;;14.25;14.25;;;;;;;;5022540;28;51159;-59
2022/09/01 00:49:03;;;;;;;;;14.25;13.50;;;;;;;;5039554;28;52036;-60
2022/09/01 00:51:30;;;;;;;;;15.25;14.50;;;;;;;;5024299;28;51165;-59
2022/09/01 00:53:56;;;;;;;;;16.50;14.25;;;;;;;;5043952;28;51300;-60
2022/09/01 00:56:22;;;;;;;;;13.00;13.00;;;;;;;;5044017;28;51112;-59
2022/09/01 00:58:47;;;;;;;;;16.00;13.00;;;;;;;;5041229;28;51214;-59
2022/09/01 01:01:13;;;;;;;;;14.00;14.00;;;;;;;;5043386;28;51106;-58
2022/09/01 01:03:41;;;;;;;;;14.50;14.00;;;;;;;;5046958;28;51344;-58
2022/09/01 01:06:08;;;;;;;;;13.75;13.50;;;;;;;;5038524;28;51045;-60
2022/09/01 01:08:35;;;;;;;;;19.00;18.75;;;;;;;;5057449;27;52882;-58
2022/09/01 01:11:04;;;;;;;;;14.25;14.25;;;;;;;;5059971;27;51583;-58
2022/09/01 01:13:34;;;;;;;;;16.50;16.50;;;;;;;;5064283;28;50986;-57
2022/09/01 01:16:00;;;;;;;;;14.50;13.50;;;;;;;;5062021;27;51043;-58
2022/09/01 01:18:26;;;;;;;;;14.75;14.50;;;;;;;;5062627;27;51837;-59
2022/09/01 01:23:55;;;;;;;;;16.50;16.50;;;;;;;;5063639;27;51243;-59
2022/09/01 01:26:20;;;;;;;;;16.00;15.25;;;;;;;;5061064;27;51399;-58
2022/09/01 01:28:46;;;;;;;;;15.00;14.75;;;;;;;;5060235;27;51139;-60
2022/09/01 01:31:13;;;;;;;;;13.00;13.00;;;;;;;;5065335;27;51515;-60
2022/09/01 01:33:42;;;;;;;;;18.00;16.50;;;;;;;;5064696;28;50992;-60
2022/09/01 01:36:11;;;;;;;;;15.25;15.25;;;;;;;;5061738;27;51186;-58
2022/09/01 01:38:36;;;;;;;;;12.50;12.50;;;;;;;;5063481;27;51287;-59
2022/09/01 01:41:05;;;;;;;;;15.00;15.00;;;;;;;;5060994;28;51060;-59
2022/09/01 01:43:30;;;;;;;;;14.50;14.00;;;;;;;;5064323;27;51112;-59
2022/09/01 01:46:01;;;;;;;;;13.75;13.75;;;;;;;;5063573;28;52092;-58
2022/09/01 01:48:27;;;;;;;;;18.00;17.00;;;;;;;;5064092;27;51315;-58
2022/09/01 01:50:53;;;;;;;;;13.00;13.00;;;;;;;;5062538;27;51207;-58
2022/09/01 01:53:19;;;;;;;;;12.25;11.75;;;;;;;;5060511;28;51108;-59
2022/09/01 01:55:47;;;;;;;;;11.50;11.50;;;;;;;;5061780;28;51009;-58
2022/09/01 01:58:13;;;;;;;;;14.00;14.00;;;;;;;;5060647;28;53253;-58
2022/09/01 02:00:41;;;;;;;;;17.25;17.00;;;;;;;;5062195;27;51118;-59
2022/09/01 02:03:06;;;;;;;;;16.25;15.50;;;;;;;;5060550;28;51119;-59
2022/09/01 02:05:34;;;;;;;;;16.75;16.75;;;;;;;;5061218;27;51191;-59
2022/09/01 02:08:03;;;;;;;;;17.75;17.00;;;;;;;;5062637;27;51139;-57
2022/09/01 02:10:30;;;;;;;;;17.00;15.75;;;;;;;;5061530;28;52676;-58
2022/09/01 02:13:00;;;;;;;;;13.25;12.50;;;;;;;;5061921;28;52883;-58
2022/09/01 02:15:25;;;;;;;;;15.25;13.00;;;;;;;;5056242;28;52331;-58
2022/09/01 02:17:51;;;;;;;;;12.00;12.00;;;;;;;;5059399;27;51242;-58
2022/09/01 02:20:16;;;;;;;;;13.75;13.75;;;;;;;;5056068;28;51116;-58
2022/09/01 02:22:43;;;;;;;;;14.25;13.25;;;;;;;;5062007;27;51351;-58
2022/09/01 02:25:09;;;;;;;;;12.25;12.25;;;;;;;;5061159;27;51292;-58
2022/09/01 02:27:38;;;;;;;;;13.00;12.50;;;;;;;;5061203;28;53875;-58
2022/09/01 02:30:09;;;;;;;;;15.50;15.25;;;;;;;;5058531;27;51188;-59
2022/09/01 02:32:35;;;;;;;;;16.25;15.50;;;;;;;;5061515;27;51207;-59
2022/09/01 02:35:01;;;;;;;;;16.50;14.50;;;;;;;;5055495;28;51560;-59
2022/09/01 02:37:26;;;;;;;;;16.00;15.75;;;;;;;;5063023;27;51697;-60
2022/09/01 02:39:52;;;;;;;;;14.25;14.25;;;;;;;;5058546;27;51175;-58
2022/09/01 02:42:26;;;;;;;;;15.25;15.00;;;;;;;;5053387;27;51321;-58
2022/09/01 02:44:52;;;;;;;;;13.75;13.00;;;;;;;;5061370;27;51294;-58
2022/09/01 02:47:17;;;;;;;;;15.75;15.75;;;;;;;;5059303;27;51403;-59
2022/09/01 02:49:43;;;;;;;;;15.25;14.00;;;;;;;;5060522;27;51811;-59
2022/09/01 02:52:09;;;;;;;;;14.75;13.25;;;;;;;;5057396;27;51257;-59
2022/09/01 02:54:35;;;;;;;;;14.00;13.75;;;;;;;;5054282;28;51465;-59
2022/09/01 02:57:00;;;;;;;;;15.50;15.50;;;;;;;;5061322;27;51993;-59
2022/09/01 02:59:27;;;;;;;;;13.25;13.25;;;;;;;;5056759;27;51289;-59
2022/09/01 03:01:53;;;;;;;;;15.50;15.50;;;;;;;;5059785;27;51192;-59
2022/09/01 03:04:19;;;;;;;;;16.00;16.00;;;;;;;;5057514;27;50994;-58
2022/09/01 03:06:44;;;;;;;;;15.25;14.50;;;;;;;;5060805;27;52839;-58
2022/09/01 03:09:12;;;;;;;;;14.75;14.75;;;;;;;;5061554;28;51463;-57
2022/09/01 03:11:42;;;;;;;;;16.50;16.50;;;;;;;;5059159;28;51544;-59
2022/09/01 03:14:07;;;;;;;;;16.25;15.75;;;;;;;;5055989;27;51268;-58
2022/09/01 03:16:33;;;;;;;;;19.00;19.00;;;;;;;;5059277;28;51639;-58
2022/09/01 03:18:58;;;;;;;;;16.50;15.75;;;;;;;;5060271;28;51133;-57
2022/09/01 03:21:24;;;;;;;;;15.00;13.50;;;;;;;;5056506;27;51191;-59
2022/09/01 03:23:50;;;;;;;;;15.75;15.75;;;;;;;;5059793;27;51277;-58
2022/09/01 03:26:18;;;;;;;;;15.00;15.00;;;;;;;;5060941;27;51622;-59
2022/09/01 03:28:43;;;;;;;;;12.25;11.50;;;;;;;;5057470;27;51522;-58
2022/09/01 03:31:09;;;;;;;;;15.00;15.00;;;;;;;;5062289;28;52069;-58
2022/09/01 03:33:35;;;;;;;;;15.00;15.00;;;;;;;;5056881;27;51378;-59
2022/09/01 03:36:01;;;;;;;;;17.25;16.75;;;;;;;;5057705;27;52905;-58
2022/09/01 03:38:27;;;;;;;;;15.00;13.50;;;;;;;;5055218;27;51132;-58
2022/09/01 03:40:57;;;;;;;;;15.75;14.50;;;;;;;;5055382;27;51057;-59
2022/09/01 03:43:23;;;;;;;;;12.75;12.75;;;;;;;;5056989;28;51318;-59
2022/09/01 03:45:49;;;;;;;;;15.00;13.25;;;;;;;;5054358;27;51415;-58
2022/09/01 03:48:15;;;;;;;;;12.75;12.75;;;;;;;;5062124;28;52437;-59
2022/09/01 03:50:45;;;;;;;;;15.00;15.00;;;;;;;;5060888;27;51153;-58
2022/09/01 03:53:15;;;;;;;;;14.25;13.25;;;;;;;;5052796;27;53763;-58
2022/09/01 03:55:43;;;;;;;;;15.00;15.00;;;;;;;;5059987;27;51287;-59
2022/09/01 03:58:11;;;;;;;;;16.25;16.00;;;;;;;;5059159;27;51245;-59
2022/09/01 04:00:38;;;;;;;;;12.50;12.50;;;;;;;;5051981;27;51125;-59
2022/09/01 04:03:06;;;;;;;;;16.00;15.75;;;;;;;;5052490;28;51285;-58
2022/09/01 04:05:33;;;;;;;;;12.00;12.00;;;;;;;;5054136;28;53935;-58
2022/09/01 04:08:02;;;;;;;;;14.00;12.75;;;;;;;;5055512;27;51151;-58
2022/09/01 04:10:27;;;;;;;;;14.25;13.00;;;;;;;;5058139;28;51253;-59
2022/09/01 04:12:55;;;;;;;;;18.50;17.50;;;;;;;;5051922;28;51258;-58
2022/09/01 04:15:20;;;;;;;;;13.75;12.50;;;;;;;;5061240;28;51894;-60
2022/09/01 04:20:38;;;;;;;;;12.50;12.00;;;;;;;;5058911;28;51238;-59
2022/09/01 04:23:09;;;;;;;;;14.00;13.33;;;;;;;;5058209;27;51072;-58
2022/09/01 04:25:37;;;;;;;;;13.25;12.75;;;;;;;;5064479;27;52226;-59
2022/09/01 04:28:11;;;;;;;;;12.25;12.25;;;;;;;;5067039;27;51129;-57
2022/09/01 04:30:39;;;;;;;;;13.50;13.50;;;;;;;;5065205;27;51120;-59
2022/09/01 04:33:04;;;;;;;;;12.75;12.75;;;;;;;;5054111;27;51479;-58
2022/09/01 04:35:31;;;;;;;;;13.25;13.25;;;;;;;;5057226;27;52959;-58
2022/09/01 04:37:56;;;;;;;;;13.25;13.00;;;;;;;;5062476;28;51177;-59
2022/09/01 04:40:22;;;;;;;;;13.25;13.25;;;;;;;;5063043;27;51230;-58
2022/09/01 04:42:47;;;;;;;;;12.75;12.00;;;;;;;;5059442;28;51159;-58
2022/09/01 04:45:14;;;;;;;;;13.25;13.25;;;;;;;;5064210;28;51911;-58
2022/09/01 04:47:41;;;;;;;;;15.50;14.00;;;;;;;;5064959;27;51189;-58
2022/09/01 04:50:12;;;;;;;;;16.50;15.50;;;;;;;;5057535;27;51182;-59
2022/09/01 04:52:37;;;;;;;;;11.67;11.33;;;;;;;;5062248;27;51980;-58
2022/09/01 04:55:03;;;;;;;;;12.25;12.00;;;;;;;;5065138;28;52344;-58
2022/09/01 04:57:30;;;;;;;;;11.75;11.75;;;;;;;;5063134;28;51045;-59
2022/09/01 04:59:55;;;;;;;;;10.75;10.75;;;;;;;;5063454;27;51052;-58
2022/09/01 05:02:25;;;;;;;;;13.50;13.25;;;;;;;;5060176;27;51319;-58
2022/09/01 05:04:51;;;;;;;;;15.75;13.50;;;;;;;;5065229;27;51222;-59
2022/09/01 05:07:16;;;;;;;;;13.00;12.00;;;;;;;;5064017;28;51198;-61
2022/09/01 05:09:41;;;;;;;;;13.33;13.00;;;;;;;;5063350;27;51353;-59
2022/09/01 05:12:15;;;;;;;;;12.25;12.25;;;;;;;;5063194;27;51182;-59
2022/09/01 05:14:42;;;;;;;;;15.00;14.25;;;;;;;;5060922;27;51993;-58
2022/09/01 05:17:11;;;;;;;;;12.00;12.00;;;;;;;;5062517;27;51090;-59
2022/09/01 05:19:38;;;;;;;;;12.25;12.25;;;;;;;;5061254;27;51044;-58
2022/09/01 05:22:03;;;;;;;;;11.25;11.00;;;;;;;;5059983;27;51277;-57
2022/09/01 05:24:30;;;;;;;;;14.50;13.50;;;;;;;;5058106;28;52514;-58
2022/09/01 05:26:56;;;;;;;;;13.75;13.00;;;;;;;;5056908;28;51120;-59
2022/09/01 05:29:23;;;;;;;;;13.50;13.00;;;;;;;;5052616;27;51216;-59
2022/09/01 05:31:48;;;;;;;;;14.75;14.50;;;;;;;;5059081;27;51087;-58
2022/09/01 05:34:21;;;;;;;;;13.50;13.00;;;;;;;;5059618;27;51906;-59
2022/09/01 05:36:49;;;;;;;;;15.75;14.50;;;;;;;;5057937;27;51097;-59
2022/09/01 05:39:14;;;;;;;;;12.75;12.75;;;;;;;;5059513;28;51192;-58
2022/09/01 05:41:40;;;;;;;;;13.25;12.75;;;;;;;;5057878;27;51254;-58
2022/09/01 05:44:06;;;;;;;;;13.50;13.25;;;;;;;;5058788;28;51118;-58
2022/09/01 05:46:33;;;;;;;;;12.25;12.25;;;;;;;;5058614;27;51547;-58
2022/09/01 05:48:58;;;;;;;;;13.25;13.25;;;;;;;;5056660;27;52429;-59
2022/09/01 05:51:26;;;;;;;;;14.00;13.00;;;;;;;;5056809;28;51396;-58
2022/09/01 05:53:57;;;;;;;;;15.00;13.00;;;;;;;;5057255;27;52888;-59
2022/09/01 05:56:23;;;;;;;;;16.00;15.00;;;;;;;;5059346;27;51088;-59
2022/09/01 05:58:49;;;;;;;;;13.50;12.50;;;;;;;;5060988;28;51173;-59
2022/09/01 06:01:33;;;;;;;;;12.00;12.00;;;;;;;;5061343;27;51495;-59
2022/09/01 06:04:02;;;;;;;;;13.00;13.00;;;;;;;;5058012;27;52856;-59
2022/09/01 06:06:29;;;;;;;;;15.75;15.00;;;;;;;;5058212;27;51128;-57
2022/09/01 06:08:58;;;;;;;;;11.33;11.33;;;;;;;;5057346;27;51919;-59
2022/09/01 06:11:24;;;;;;;;;13.67;12.00;;;;;;;;5060053;27;51175;-59
2022/09/01 06:13:51;;;;;;;;;13.50;12.50;;;;;;;;5058029;27;51749;-59
2022/09/01 06:16:18;;;;;;;;;12.33;11.33;;;;;;;;5060651;28;51158;-59
2022/09/01 06:18:43;;;;;;;;;12.33;12.00;;;;;;;;5062078;28;51119;-58
2022/09/01 06:21:13;;;;;;;;;16.00;15.00;;;;;;;;5059462;27;52294;-58
2022/09/01 06:23:39;;;;;;;;;17.75;16.25;;;;;;;;5060694;27;52220;-58
2022/09/01 06:26:06;;;;;;;;;11.33;11.33;;;;;;;;5061448;27;51164;-58
2022/09/01 06:28:31;;;;;;;;;13.00;12.00;;;;;;;;5058596;27;51062;-58
2022/09/01 06:30:56;;;;;;;;;13.67;13.33;;;;;;;;5061225;28;51189;-59
2022/09/01 06:33:23;;;;;;;;;13.67;13.67;;;;;;;;5060621;27;52105;-59
2022/09/01 06:35:51;;;;;;;;;14.00;13.00;;;;;;;;5061783;27;51209;-58
2022/09/01 06:38:18;;;;;;;;;13.00;12.67;;;;;;;;5059644;27;51174;-59
2022/09/01 06:40:43;;;;;;;;;14.25;13.00;;;;;;;;5058730;27;51242;-59
2022/09/01 06:43:10;;;;;;;;;13.00;12.25;;;;;;;;5057220;28;51210;-59
2022/09/01 06:45:41;;;;;;;;;13.00;13.00;;;;;;;;5059761;27;51134;-60
2022/09/01 06:48:06;;;;;;;;;14.00;13.00;;;;;;;;5061536;27;52187;-61
2022/09/01 06:50:31;;;;;;;;;13.00;13.00;;;;;;;;5063594;27;51350;-59
2022/09/01 06:53:07;;;;;;;;;14.67;13.67;;;;;;;;5063278;27;52032;-59
2022/09/01 06:55:33;;;;;;;;;12.00;11.33;;;;;;;;5061931;27;51234;-60
2022/09/01 06:57:58;;;;;;;;;14.50;13.25;;;;;;;;5064531;27;51271;-59
2022/09/01 07:00:25;;;;;;;;;13.00;13.00;;;;;;;;5063451;27;51244;-60
2022/09/01 07:02:55;;;;;;;;;12.67;12.67;;;;;;;;5062741;27;51157;-60
2022/09/01 07:05:21;;;;;;;;;10.33;9.33;;;;;;;;5062945;27;51143;-59
2022/09/01 07:07:57;;;;;;;;;15.33;14.67;;;;;;;;5096645;27;51126;-59
2022/09/01 07:10:24;;;;;;;;;14.33;13.67;;;;;;;;5100893;27;51179;-58
2022/09/01 07:12:50;;;;;;;;;14.50;14.50;;;;;;;;5101259;27;51428;-59
2022/09/01 07:15:18;;;;;;;;;12.00;11.00;;;;;;;;5100618;27;52137;-60
2022/09/01 07:18:02;;;;;;;;;12.67;12.67;;;;;;;;5081800;27;52274;-59
2022/09/01 07:20:38;;;;;;;;;11.00;11.00;;;;;;;;5098980;27;51249;-58
2022/09/01 07:23:04;;;;;;;;;14.00;13.33;;;;;;;;5100114;27;51328;-59
2022/09/01 07:25:30;;;;;;;;;12.00;12.00;;;;;;;;5101404;27;51093;-59
2022/09/01 07:27:58;;;;;;;;;14.50;13.50;;;;;;;;5098572;27;51232;-58
2022/09/01 07:30:23;;;;;;;;;14.00;13.00;;;;;;;;5101470;27;51121;-59
2022/09/01 07:32:49;;;;;;;;;13.33;13.33;;;;;;;;5098559;27;51617;-60
2022/09/01 07:35:17;;;;;;;;;14.25;14.00;;;;;;;;5100932;27;51876;-59
2022/09/01 07:37:42;;;;;;;;;15.67;15.00;;;;;;;;5098273;27;51275;-59
2022/09/01 07:40:10;;;;;;;;;12.33;12.00;;;;;;;;5098881;27;51182;-58
2022/09/01 07:42:37;;;;;;;;;13.67;13.33;;;;;;;;5098659;27;51455;-60
2022/09/01 07:45:08;;;;;;;;;13.00;12.67;;;;;;;;5098783;27;51889;-59
2022/09/01 07:47:35;;;;;;;;;15.00;14.00;;;;;;;;5097957;27;51275;-59
2022/09/01 07:50:07;;;;;;;;;13.00;11.33;;;;;;;;5094878;27;52592;-59
2022/09/01 07:52:41;;;;;;;;;16.25;15.00;;;;;;;;5100221;27;51251;-59
2022/09/01 07:55:09;;;;;;;;;13.33;13.00;;;;;;;;5097858;27;51110;-59
2022/09/01 07:57:34;;;;;;;;;14.00;14.00;;;;;;;;5095148;27;51149;-59
2022/09/01 08:00:00;;;;;;;;;14.67;14.67;;;;;;;;5096204;27;51177;-59
2022/09/01 08:02:26;;;;;;;;;14.00;14.00;;;;;;;;5098399;27;51408;-60
2022/09/01 08:04:52;;;;;;;;;11.33;11.33;;;;;;;;5096819;27;51994;-58
2022/09/01 08:07:17;;;;;;;;;16.67;16.00;;;;;;;;5097111;27;51270;-59
2022/09/01 08:09:42;;;;;;;;;15.33;14.33;;;;;;;;5096421;27;51256;-59
2022/09/01 08:12:08;;;;;;;;;14.33;13.00;;;;;;;;5098658;27;51062;-58
2022/09/01 08:14:33;;;;;;;;;14.33;14.33;;;;;;;;5098707;27;52158;-59
2022/09/01 08:16:58;;;;;;;;;15.00;14.00;;;;;;;;5098385;27;51172;-59
2022/09/01 08:19:24;;;;;;;;;14.00;14.00;;;;;;;;5080956;27;51320;-60
2022/09/01 08:21:49;;;;;;;;;11.00;11.00;;;;;;;;5084992;27;51234;-59
2022/09/01 08:24:14;;;;;;;;;13.67;13.00;;;;;;;;5083904;27;52165;-59
2022/09/01 08:26:40;;;;;;;;;10.67;10.67;;;;;;;;5084060;27;51224;-59
2022/09/01 08:29:05;;;;;;;;;12.00;11.67;;;;;;;;5083575;27;51367;-59
2022/09/01 08:31:31;;;;;;;;;13.00;13.00;;;;;;;;5086252;27;51305;-58
2022/09/01 08:33:57;;;;;;;;;11.33;11.33;;;;;;;;5083055;27;51929;-60
2022/09/01 08:36:22;;;;;;;;;13.67;13.00;;;;;;;;5085974;27;51269;-59
2022/09/01 08:38:47;;;;;;;;;10.00;10.00;;;;;;;;5083792;27;51268;-58
2022/09/01 08:41:18;;;;;;;;;13.00;13.00;;;;;;;;5087358;27;52121;-60
2022/09/01 08:44:10;;;;;;;;;9.33;9.33;;;;;;;;5086280;27;52838;-59
2022/09/01 08:46:41;;;;;;;;;15.00;13.00;;;;;;;;5072109;27;51214;-56
2022/09/01 08:49:08;;;;;;;;;13.67;12.67;;;;;;;;5078208;27;51290;-55
2022/09/01 08:51:38;;;;;;;;;11.67;11.67;;;;;;;;5083368;27;51191;-55
2022/09/01 08:54:09;;;;;;;;;11.33;11.00;;;;;;;;5082294;27;52352;-54
2022/09/01 08:56:36;;;;;;;;;12.67;12.67;;;;;;;;5080851;27;51267;-54
2022/09/01 08:59:01;;;;;;;;;12.00;12.00;;;;;;;;5089402;27;51148;-57
2022/09/01 09:01:35;;;;;;;;;12.00;12.00;;;;;;;;5093935;27;51150;-55
2022/09/01 09:04:24;;;;;;;;;12.67;12.33;;;;;;;;5102105;27;52789;-55
2022/09/01 09:07:09;;;;;;;;;11.67;11.67;;;;;;;;5077216;27;51664;-56
2022/09/01 09:09:58;;;;;;;;;12.25;12.25;;;;;;;;5083138;27;51065;-57
2022/09/01 09:12:29;;;;;;;;;12.50;12.50;;;;;;;;5075963;27;51049;-57
2022/09/01 09:15:01;;;;;;;;;12.00;11.33;;;;;;;;5076770;27;51060;-57
2022/09/01 09:17:33;;;;;;;;;13.00;12.00;;;;;;;;5087367;27;51124;-58
2022/09/01 09:19:59;;;;;;;;;12.00;12.00;;;;;;;;5080958;27;51130;-58
2022/09/01 09:22:24;;;;;;;;;13.33;12.00;;;;;;;;5090201;27;51139;-58
2022/09/01 09:24:49;;;;;;;;;13.33;12.00;;;;;;;;5078482;27;51131;-58
2022/09/01 09:27:26;;;;;;;;;12.67;12.33;;;;;;;;5082481;27;51047;-57
2022/09/01 09:29:53;;;;;;;;;12.75;12.00;;;;;;;;5079608;27;51081;-57
2022/09/01 09:32:19;;;;;;;;;12.33;12.33;;;;;;;;5075728;27;51387;-58
2022/09/01 09:34:44;;;;;;;;;12.67;12.67;;;;;;;;5088763;27;51621;-59
2022/09/01 09:37:19;;;;;;;;;12.00;12.00;;;;;;;;5076802;27;51194;-59
2022/09/01 09:39:44;;;;;;;;;14.00;13.00;;;;;;;;5083541;27;51120;-57
2022/09/01 09:42:11;;;;;;;;;13.25;13.25;;;;;;;;5082626;27;51305;-59
2022/09/01 09:44:42;;;;;;;;;9.75;9.75;;;;;;;;5076739;27;51295;-58
2022/09/01 09:47:09;;;;;;;;;12.00;12.00;;;;;;;;5085908;27;51217;-57
2022/09/01 09:49:35;;;;;;;;;11.00;11.00;;;;;;;;5079732;27;50906;-57
2022/09/01 09:52:07;;;;;;;;;15.00;15.00;;;;;;;;5087915;27;51202;-57
2022/09/01 09:54:33;;;;;;;;;12.75;12.75;;;;;;;;5082456;27;52043;-58
2022/09/01 09:57:07;;;;;;;;;12.67;12.67;;;;;;;;5082333;27;51256;-58
2022/09/01 09:59:38;;;;;;;;;12.00;11.67;;;;;;;;5079628;27;51212;-58
2022/09/01 10:02:33;;;;;;;;;13.50;12.50;;;;;;;;5084820;27;51299;-58
2022/09/01 10:04:59;;;;;;;;;11.67;11.00;;;;;;;;5068720;27;53170;-58
2022/09/01 10:07:35;;;;;;;;;14.00;13.50;;;;;;;;5073954;27;50908;-57
2022/09/01 10:10:02;;;;;;;;;12.00;12.00;;;;;;;;5084463;27;51425;-58
2022/09/01 10:12:28;;;;;;;;;12.33;12.33;;;;;;;;5083924;27;51075;-58
2022/09/01 10:15:06;;;;;;;;;15.67;14.67;;;;;;;;5089076;27;52577;-58
2022/09/01 10:17:41;;;;;;;;;13.75;13.00;;;;;;;;5072298;27;50895;-57
2022/09/01 10:20:20;;;;;;;;;14.33;14.33;;;;;;;;5085286;27;50915;-58
2022/09/01 10:22:46;;;;;;;;;16.00;15.00;;;;;;;;5088580;27;50977;-58
2022/09/01 10:25:15;;;;;;;;;14.25;13.50;;;;;;;;5084174;27;52091;-56
2022/09/01 10:27:42;;;;;;;;;12.67;12.67;;;;;;;;5081701;27;51105;-59
2022/09/01 10:30:10;;;;;;;;;12.00;12.00;;;;;;;;5084430;27;50934;-58
2022/09/01 10:32:54;;;;;;;;;7.00;6.67;;;;;;;;5090834;27;51296;-59
2022/09/01 10:35:20;;;;;;;;;10.00;10.00;;;;;;;;5079330;27;52022;-58
2022/09/01 10:37:46;;;;;;;;;12.67;12.00;;;;;;;;5092149;27;51031;-59
2022/09/01 10:40:32;;;;;;;;;13.67;13.00;;;;;;;;5075850;27;51072;-56
2022/09/01 10:42:59;;;;;;;;;11.00;10.33;;;;;;;;5086260;27;51322;-57
2022/09/01 10:45:24;;;;;;;;;12.00;12.00;;;;;;;;5090640;27;51947;-58
2022/09/01 10:47:49;;;;;;;;;11.00;11.00;;;;;;;;5087226;27;51160;-58
2022/09/01 10:50:35;;;;;;;;;10.33;10.33;;;;;;;;5084186;27;51237;-57
2022/09/01 10:53:02;;;;;;;;;12.33;12.00;;;;;;;;5090350;27;51133;-57
2022/09/01 10:55:50;;;;;;;;;11.00;11.00;;;;;;;;5091698;27;54276;-59
2022/09/01 10:58:33;;;;;;;;;13.00;12.67;;;;;;;;5088993;27;50926;-58
2022/09/01 11:01:00;;;;;;;;;11.00;11.00;;;;;;;;5079096;27;51050;-58
2022/09/01 11:03:25;;;;;;;;;10.00;10.00;;;;;;;;5075014;27;51300;-59
2022/09/01 11:05:56;;;;;;;;;11.00;11.00;;;;;;;;5071623;27;52397;-65
2022/09/01 11:08:38;;;;;;;;;14.00;12.67;;;;;;;;5078947;27;51026;-66
2022/09/01 11:11:15;;;;;;;;;16.67;15.67;;;;;;;;5087863;27;51124;-65
2022/09/01 11:13:42;;;;;;;;;11.67;11.67;;;;;;;;5091746;27;51341;-65
2022/09/01 11:16:34;;;;;;;;;11.33;11.00;;;;;;;;5091443;27;51676;-67
2022/09/01 11:19:17;;;;;;;;;12.67;12.33;;;;;;;;5073584;27;51118;-67
2022/09/01 11:21:43;;;;;;;;;15.33;15.33;;;;;;;;5071198;27;51313;-66
2022/09/01 11:24:27;;;;;;;;;17.33;16.67;;;;;;;;5071828;27;51039;-66
2022/09/01 11:26:52;;;;;;;;;12.00;11.00;;;;;;;;5073471;27;51174;-65
2022/09/01 11:29:38;;;;;;;;;9.00;9.00;;;;;;;;5075659;27;51136;-66
2022/09/01 11:32:04;;;;;;;;;9.67;9.67;;;;;;;;5071180;27;51114;-64
2022/09/01 11:34:30;;;;;;;;;8.00;8.00;;;;;;;;5071073;28;51182;-65
2022/09/01 11:36:59;;;;;;;;;7.33;7.33;;;;;;;;5071237;28;51158;-64
2022/09/01 11:39:42;;;;;;;;;8.00;7.67;;;;;;;;5071412;27;51006;-64
2022/09/01 11:42:25;;;;;;;;;9.67;7.67;;;;;;;;5078970;27;51112;-65
2022/09/01 11:44:56;;;;;;;;;6.00;6.00;;;;;;;;5078792;27;51154;-64
2022/09/01 11:47:27;;;;;;;;;7.00;6.67;;;;;;;;5091497;27;53250;-64
2022/09/01 11:49:55;;;;;;;;;7.33;7.00;;;;;;;;5089709;27;51026;-64
2022/09/01 11:52:22;;;;;;;;;7.00;6.67;;;;;;;;5089830;27;50950;-63
2022/09/01 11:54:48;;;;;;;;;8.00;8.00;;;;;;;;5083741;27;51001;-64
2022/09/01 11:57:33;;;;;;;;;10.33;10.33;;;;;;;;5074065;27;52067;-64
2022/09/01 12:00:00;;;;;;;;;10.00;9.67;;;;;;;;5074105;27;51089;-64
2022/09/01 12:02:30;;;;;;;;;8.33;7.33;;;;;;;;5093998;27;51249;-63
2022/09/01 12:04:56;;;;;;;;;8.33;8.33;;;;;;;;5093197;27;50937;-64
2022/09/01 12:07:27;;;;;;;;;7.00;7.00;;;;;;;;5092411;27;52699;-63
2022/09/01 12:09:52;;;;;;;;;10.00;9.00;;;;;;;;5094507;27;51141;-64
2022/09/01 12:12:34;;;;;;;;;1.00;1.00;;;;;;;;5094756;27;51210;-64
2022/09/01 12:15:06;;;;;;;;;8.33;7.67;;;;;;;;5094855;27;51392;-64
2022/09/01 12:17:31;;;;;;;;;6.00;6.00;;;;;;;;5082583;27;52185;-63
2022/09/01 12:20:16;;;;;;;;;7.33;7.33;;;;;;;;5073500;27;50974;-64
2022/09/01 12:22:41;;;;;;;;;8.00;8.00;;;;;;;;5074047;27;51111;-64
2022/09/01 12:25:17;;;;;;;;;6.33;6.33;;;;;;;;5074265;28;51301;-63
2022/09/01 12:27:42;;;;;;;;;7.33;7.00;;;;;;;;5074046;27;51156;-63
2022/09/01 12:30:08;;;;;;;;;8.00;7.67;;;;;;;;5074478;27;51137;-63
2022/09/01 12:32:33;;;;;;;;;6.00;6.00;;;;;;;;5073919;27;50997;-65
2022/09/01 12:35:00;;;;;;;;;5.67;5.67;;;;;;;;5074251;27;51119;-64
2022/09/01 12:37:26;;;;;;;;;7.00;7.00;;;;;;;;5074166;28;52181;-64
2022/09/01 12:39:56;;;;;;;;;8.33;8.33;;;;;;;;5073340;27;51080;-63
2022/09/01 12:42:29;;;;;;;;;7.00;6.33;;;;;;;;5082779;27;50889;-63
2022/09/01 12:45:06;;;;;;;;;7.67;7.67;;;;;;;;5093476;27;51188;-64
2022/09/01 12:47:34;;;;;;;;;9.00;8.67;;;;;;;;5057935;28;52847;-63
2022/09/01 12:50:00;;;;;;;;;7.00;6.67;;;;;;;;5073320;28;51274;-63
2022/09/01 12:52:29;;;;;;;;;8.00;7.67;;;;;;;;5074234;27;51090;-63
2022/09/01 12:54:57;;;;;;;;;6.67;6.67;;;;;;;;5074237;27;51056;-63
2022/09/01 12:57:27;;;;;;;;;8.00;8.00;;;;;;;;5073487;27;51952;-63
2022/09/01 13:00:08;;;;;;;;;7.00;7.00;;;;;;;;5074080;27;51024;-64
2022/09/01 13:02:37;;;;;;;;;8.00;8.00;;;;;;;;5073884;27;51020;-64
2022/09/01 13:05:22;;;;;;;;;7.00;7.00;;;;;;;;5084126;27;50899;-63
2022/09/01 13:07:48;;;;;;;;;10.00;10.00;;;;;;;;5093561;27;51792;-63
2022/09/01 13:10:13;;;;;;;;;8.00;8.00;;;;;;;;5093976;27;50946;-64
2022/09/01 13:12:42;;;;;;;;;6.33;6.33;;;;;;;;5094571;27;51533;-65
2022/09/01 13:15:08;;;;;;;;;6.67;6.00;;;;;;;;5092944;27;51153;-65
2022/09/01 13:17:33;;;;;;;;;10.00;9.67;;;;;;;;5082183;27;51732;-64
2022/09/01 13:19:58;;;;;;;;;9.00;8.00;;;;;;;;5072822;27;51170;-63
2022/09/01 13:22:23;;;;;;;;;7.67;7.67;;;;;;;;5073554;27;50981;-64
2022/09/01 13:24:49;;;;;;;;;8.00;7.00;;;;;;;;5073896;27;51402;-64
2022/09/01 13:27:14;;;;;;;;;8.00;8.00;;;;;;;;5073236;27;51311;-63
2022/09/01 13:29:40;;;;;;;;;8.00;8.00;;;;;;;;5072946;27;51079;-63
2022/09/01 13:32:06;;;;;;;;;7.00;7.00;;;;;;;;5073577;27;51123;-63
2022/09/01 13:34:31;;;;;;;;;9.00;9.00;;;;;;;;5073126;27;51039;-63
2022/09/01 13:36:56;;;;;;;;;9.67;9.67;;;;;;;;5073140;27;51937;-63
2022/09/01 13:39:21;;;;;;;;;8.00;8.00;;;;;;;;5073217;28;51145;-64
2022/09/01 13:41:47;;;;;;;;;10.00;9.67;;;;;;;;5078426;27;51063;-63
2022/09/01 13:44:12;;;;;;;;;7.67;7.67;;;;;;;;5093574;27;51359;-62
2022/09/01 13:46:38;;;;;;;;;8.67;8.67;;;;;;;;5093220;27;51961;-64
2022/09/01 13:49:03;;;;;;;;;11.00;9.33;;;;;;;;5093189;27;50987;-64
2022/09/01 13:51:29;;;;;;;;;11.00;10.33;;;;;;;;5093114;27;50915;-64
2022/09/01 13:53:54;;;;;;;;;9.00;9.00;;;;;;;;5089883;27;51283;-63
2022/09/01 13:56:19;;;;;;;;;9.00;9.00;;;;;;;;5072984;28;51047;-63
2022/09/01 13:58:44;;;;;;;;;7.00;7.00;;;;;;;;5072808;27;51064;-63
2022/09/01 14:01:10;;;;;;;;;12.00;11.33;;;;;;;;5082106;27;50918;-64
2022/09/01 14:03:36;;;;;;;;;8.00;8.00;;;;;;;;5076367;27;51381;-64
2022/09/01 14:06:01;;;;;;;;;5.00;5.00;;;;;;;;5072369;27;50898;-64
2022/09/01 14:08:27;;;;;;;;;8.67;8.67;;;;;;;;5072587;27;51083;-65
2022/09/01 14:10:52;;;;;;;;;7.33;7.33;;;;;;;;5073269;27;51736;-64
2022/09/01 14:13:19;;;;;;;;;10.00;10.00;;;;;;;;5071675;28;51040;-64
2022/09/01 14:15:45;;;;;;;;;10.33;9.67;;;;;;;;5075416;27;52075;-63
2022/09/01 14:18:12;;;;;;;;;11.67;11.00;;;;;;;;5074922;27;51009;-63
2022/09/01 14:20:41;;;;;;;;;9.33;9.00;;;;;;;;5072267;27;51183;-63
2022/09/01 14:23:07;;;;;;;;;7.00;7.00;;;;;;;;5072563;27;51405;-64
2022/09/01 14:25:33;;;;;;;;;9.33;9.33;;;;;;;;5071794;27;51203;-66
2022/09/01 14:27:59;;;;;;;;;8.00;8.00;;;;;;;;5071821;27;51170;-64
2022/09/01 14:30:25;;;;;;;;;8.33;8.33;;;;;;;;5073013;27;50943;-63
2022/09/01 14:32:51;;;;;;;;;9.33;9.33;;;;;;;;5072700;27;51290;-64